createdAt,value
2022-09-12T00:00:23.588Z,101554.53
2022-09-12T00:02:54.457Z,101554.56
2022-09-12T00:05:22.550Z,101549.16
2022-09-12T00:07:50.446Z,101556.44
2022-09-12T00:10:19.435Z,101551.97
2022-09-12T00:12:47.071Z,101554.66
2022-09-12T00:15:16.141Z,101551.09
2022-09-12T00:17:43.795Z,101553.81
2022-09-12T00:20:12.374Z,101547.53
2022-09-12T00:22:40.030Z,101548.44
2022-09-12T00:25:08.831Z,101545.81
2022-09-12T00:27:36.442Z,101544.13
2022-09-12T00:30:04.604Z,101534.31
2022-09-12T00:32:33.607Z,101544.25
2022-09-12T00:35:02.781Z,101535.28
2022-09-12T00:37:31.195Z,101532.56
2022-09-12T00:39:58.845Z,101536.16
2022-09-12T00:42:26.486Z,101530.81
2022-09-12T00:44:54.452Z,101524.56
2022-09-12T00:47:26.239Z,101528.19
2022-09-12T00:50:00.949Z,101519.19
2022-09-12T00:52:31.687Z,101529.06
2022-09-12T00:55:03.819Z,101518.34
2022-09-12T00:57:36.756Z,101513.88
2022-09-12T01:00:13.660Z,101516.63
2022-09-12T01:02:42.197Z,101508.59
2022-09-12T01:05:12.091Z,101518.44
2022-09-12T01:07:41.335Z,101510.41
2022-09-12T01:10:10.692Z,101512.25
2022-09-12T01:12:41.082Z,101509.56
2022-09-12T01:15:10.081Z,101515.00
2022-09-12T01:17:52.270Z,101504.25
2022-09-12T01:20:47.246Z,101511.47
2022-09-12T01:23:38.418Z,101513.28
2022-09-12T01:26:24.363Z,101515.06
2022-09-12T01:29:14.563Z,101508.84
2022-09-12T01:31:52.441Z,101504.38
2022-09-12T01:34:28.123Z,101502.63
2022-09-12T01:37:04.544Z,101505.31
2022-09-12T01:39:41.526Z,101503.53
2022-09-12T01:42:14.684Z,101501.81
2022-09-12T01:44:51.419Z,101499.13
2022-09-12T01:47:25.538Z,101495.59
2022-09-12T01:50:01.362Z,101495.59
2022-09-12T01:52:32.896Z,101490.28
2022-09-12T01:55:09.748Z,101488.50
2022-09-12T01:57:42.095Z,101482.22
2022-09-12T02:00:13.137Z,101481.31
2022-09-12T02:02:48.511Z,101478.69
2022-09-12T02:05:21.498Z,101479.63
2022-09-12T02:07:52.909Z,101477.84
2022-09-12T02:10:26.345Z,101468.88
2022-09-12T02:12:59.645Z,101468.03
2022-09-12T02:15:33.587Z,101459.97
2022-09-12T02:18:06.870Z,101460.00
2022-09-12T02:20:47.850Z,101467.16
2022-09-12T02:23:20.499Z,101465.41
2022-09-12T02:25:52.337Z,101462.72
2022-09-12T02:28:24.346Z,101464.50
2022-09-12T02:30:58.049Z,101469.88
2022-09-12T02:33:31.498Z,101455.59
2022-09-12T02:36:05.638Z,101453.81
2022-09-12T02:38:41.544Z,101460.06
2022-09-12T02:41:09.370Z,101456.56
2022-09-12T02:43:37.788Z,101463.81
2022-09-12T02:46:07.448Z,101467.44
2022-09-12T02:48:41.827Z,101459.38
2022-09-12T02:51:09.759Z,101460.25
2022-09-12T02:53:38.616Z,101448.59
2022-09-12T02:56:12.222Z,101448.63
2022-09-12T02:58:40.107Z,101456.69
2022-09-12T03:01:14.905Z,101440.56
2022-09-12T03:04:01.369Z,101443.28
2022-09-12T03:06:36.427Z,101443.34
2022-09-12T03:09:13.582Z,101447.84
2022-09-12T03:12:04.462Z,101446.06
2022-09-12T03:14:46.793Z,101445.16
2022-09-12T03:17:25.950Z,101450.59
2022-09-12T03:20:02.258Z,101445.31
2022-09-12T03:22:34.800Z,101448.06
2022-09-12T03:25:06.799Z,101452.53
2022-09-12T03:27:37.733Z,101456.06
2022-09-12T03:30:06.264Z,101456.97
2022-09-12T03:32:45.147Z,101453.34
2022-09-12T03:35:15.143Z,101448.88
2022-09-12T03:37:42.863Z,101442.63
2022-09-12T03:40:12.417Z,101448.00
2022-09-12T03:42:40.228Z,101443.50
2022-09-12T03:45:09.670Z,101445.31
2022-09-12T03:47:37.497Z,101443.53
2022-09-12T03:50:06.357Z,101435.50
2022-09-12T03:52:35.571Z,101442.63
2022-09-12T03:55:03.232Z,101436.41
2022-09-12T03:57:30.878Z,101439.94
2022-09-12T03:59:58.541Z,101433.72
2022-09-12T04:02:26.202Z,101433.72
2022-09-12T04:04:53.911Z,101428.41
2022-09-12T04:07:21.632Z,101435.56
2022-09-12T04:09:50.639Z,101432.00
2022-09-12T04:12:18.278Z,101426.66
2022-09-12T04:14:46.297Z,101428.41
2022-09-12T04:17:15.178Z,101431.09
2022-09-12T04:19:42.871Z,101427.56
2022-09-12T04:22:10.475Z,101426.69
2022-09-12T04:24:38.133Z,101425.78
2022-09-12T04:27:07.929Z,101422.19
2022-09-12T04:29:35.698Z,101417.72
2022-09-12T04:32:04.771Z,101420.41
2022-09-12T04:34:32.766Z,101415.94
2022-09-12T04:37:00.428Z,101415.09
2022-09-12T04:39:28.167Z,101416.97
2022-09-12T04:41:55.838Z,101420.53
2022-09-12T04:44:24.963Z,101419.63
2022-09-12T04:46:52.752Z,101419.56
2022-09-12T04:49:20.386Z,101415.06
2022-09-12T04:51:48.310Z,101406.13
2022-09-12T04:54:17.828Z,101407.91
2022-09-12T04:56:47.361Z,101404.31
2022-09-12T04:59:16.382Z,101403.47
2022-09-12T05:01:45.430Z,101400.78
2022-09-12T05:04:14.455Z,101398.06
2022-09-12T05:06:43.586Z,101398.94
2022-09-12T05:09:14.071Z,101402.50
2022-09-12T05:14:34.087Z,101390.84
2022-09-12T05:17:04.343Z,101394.34
2022-09-12T05:19:32.932Z,101390.75
2022-09-12T05:22:02.509Z,101392.50
2022-09-12T05:24:30.219Z,101397.78
2022-09-12T05:26:57.891Z,101398.63
2022-09-12T05:29:25.664Z,101400.31
2022-09-12T05:31:53.749Z,101397.50
2022-09-12T05:34:23.457Z,101396.53
2022-09-12T05:36:51.213Z,101395.53
2022-09-12T05:39:18.993Z,101395.44
2022-09-12T05:41:47.291Z,101392.66
2022-09-12T05:44:15.707Z,101388.09
2022-09-12T05:46:46.630Z,101398.75
2022-09-12T05:49:14.832Z,101396.88
2022-09-12T05:51:45.653Z,101394.09
2022-09-12T05:54:19.364Z,101394.94
2022-09-12T05:56:48.321Z,101397.56
2022-09-12T05:59:18.308Z,101410.03
2022-09-12T06:01:46.871Z,101401.88
2022-09-12T06:04:14.590Z,101406.28
2022-09-12T06:06:45.859Z,101412.47
2022-09-12T06:09:15.027Z,101413.25
2022-09-12T06:11:43.337Z,101418.59
2022-09-12T06:14:12.560Z,101415.81
2022-09-12T06:16:40.351Z,101415.78
2022-09-12T06:19:13.827Z,101422.00
2022-09-12T06:21:43.067Z,101417.44
2022-09-12T06:24:10.914Z,101420.94
2022-09-12T06:26:38.745Z,101418.16
2022-09-12T06:29:06.498Z,101411.78
2022-09-12T06:31:36.425Z,101414.31
2022-09-12T06:34:06.402Z,101414.16
2022-09-12T06:36:37.479Z,101404.16
2022-09-12T06:39:08.725Z,101404.03
2022-09-12T06:41:38.459Z,101412.84
2022-09-12T06:44:12.142Z,101407.25
2022-09-12T06:46:39.789Z,101413.44
2022-09-12T06:49:08.116Z,101414.13
2022-09-12T06:51:36.243Z,101413.09
2022-09-12T06:54:05.300Z,101412.00
2022-09-12T06:56:34.662Z,101414.53
2022-09-12T06:59:02.328Z,101417.94
2022-09-12T07:01:31.986Z,101419.59
2022-09-12T07:04:01.070Z,101411.38
2022-09-12T07:06:31.861Z,101412.13
2022-09-12T07:09:00.945Z,101416.47
2022-09-12T07:11:32.622Z,101415.47
2022-09-12T07:14:03.126Z,101415.31
2022-09-12T07:16:31.159Z,101415.16
2022-09-12T07:19:00.416Z,101411.41
2022-09-12T07:21:28.961Z,101405.94
2022-09-12T07:23:57.840Z,101407.56
2022-09-12T07:26:26.871Z,101402.97
2022-09-12T07:29:07.969Z,101401.94
2022-09-12T07:31:45.409Z,101402.75
2022-09-12T07:34:13.879Z,101395.34
2022-09-12T07:36:41.678Z,101393.38
2022-09-12T07:39:09.612Z,101393.22
2022-09-12T07:41:37.256Z,101396.69
2022-09-12T07:44:06.645Z,101393.00
2022-09-12T07:46:35.285Z,101396.44
2022-09-12T07:49:04.431Z,101405.28
2022-09-12T07:51:32.438Z,101399.75
2022-09-12T07:54:00.672Z,101400.44
2022-09-12T07:56:32.743Z,101406.59
2022-09-12T07:59:02.506Z,101400.19
2022-09-12T08:01:30.928Z,101405.38
2022-09-12T08:04:00.000Z,101407.06
2022-09-12T08:06:33.747Z,101402.47
2022-09-12T08:09:01.912Z,101404.16
2022-09-12T08:11:30.989Z,101403.16
2022-09-12T08:13:59.983Z,101404.91
2022-09-12T08:16:29.569Z,101403.84
2022-09-12T08:18:57.250Z,101402.75
2022-09-12T08:21:26.859Z,101407.72
2022-09-12T08:23:57.389Z,101400.94
2022-09-12T08:26:25.719Z,101397.72
2022-09-12T08:28:54.005Z,101403.78
2022-09-12T08:31:23.867Z,101397.47
2022-09-12T08:33:52.266Z,101393.88
2022-09-12T08:36:22.584Z,101392.03
2022-09-12T08:38:59.260Z,101400.06
2022-09-12T08:41:31.753Z,101395.34
2022-09-12T08:44:31.562Z,101391.66
2022-09-12T08:47:24.970Z,101385.94
2022-09-12T08:50:00.341Z,101397.28
2022-09-12T08:52:32.302Z,101394.47
2022-09-12T08:55:01.295Z,101393.25
2022-09-12T08:57:30.438Z,101400.06
2022-09-12T08:59:58.344Z,101406.09
2022-09-12T09:02:43.048Z,101405.88
2022-09-12T09:05:20.818Z,101404.41
2022-09-12T09:08:10.679Z,101400.25
2022-09-12T09:10:48.015Z,101396.19
2022-09-12T09:13:48.222Z,101390.66
2022-09-12T09:16:23.866Z,101394.16
2022-09-12T09:18:53.669Z,101396.84
2022-09-12T09:21:30.141Z,101396.72
2022-09-12T09:24:04.973Z,101393.69
2022-09-12T09:26:43.031Z,101385.97
2022-09-12T09:29:18.660Z,101389.97
2022-09-12T09:31:49.617Z,101384.06
2022-09-12T09:34:22.503Z,101389.06
2022-09-12T09:36:52.652Z,101380.59
2022-09-12T09:39:44.326Z,101374.81
2022-09-12T09:42:23.707Z,101375.38
2022-09-12T09:44:54.984Z,101359.00
2022-09-12T09:47:23.355Z,101367.19
2022-09-12T09:49:51.026Z,101367.13
2022-09-12T09:52:25.490Z,101364.34
2022-09-12T09:54:57.583Z,101356.91
2022-09-12T09:57:41.522Z,101353.09
2022-09-12T10:00:27.247Z,101357.31
2022-09-12T10:03:15.015Z,101353.53
2022-09-12T10:05:48.141Z,101349.59
2022-09-12T10:08:22.269Z,101360.00
2022-09-12T10:11:02.885Z,101343.31
2022-09-12T10:13:36.571Z,101342.28
2022-09-12T10:16:08.706Z,101340.25
2022-09-12T10:18:43.852Z,101328.25
2022-09-12T10:21:23.468Z,101329.72
2022-09-12T10:24:00.111Z,101328.50
2022-09-12T10:26:33.126Z,101326.41
2022-09-12T10:29:11.814Z,101320.78
2022-09-12T10:31:48.226Z,101310.63
2022-09-12T10:34:32.412Z,101323.06
2022-09-12T10:37:04.182Z,101315.34
2022-09-12T10:39:32.728Z,101307.91
2022-09-12T10:42:00.526Z,101311.31
2022-09-12T10:44:30.756Z,101310.16
2022-09-12T10:47:01.413Z,101303.69
2022-09-12T10:49:31.379Z,101305.06
2022-09-12T10:52:18.204Z,101308.31
2022-09-12T10:54:46.367Z,101303.34
2022-09-12T10:57:58.647Z,101298.66
2022-09-12T11:00:30.521Z,101295.56
2022-09-12T11:03:16.081Z,101295.38
2022-09-12T11:05:55.270Z,101286.81
2022-09-12T11:08:39.509Z,101291.78
2022-09-12T11:11:23.681Z,101284.28
2022-09-12T11:14:06.752Z,101283.88
2022-09-12T11:16:43.152Z,101287.19
2022-09-12T11:19:30.923Z,101278.84
2022-09-12T11:22:13.168Z,101277.66
2022-09-12T11:25:07.018Z,101282.22
2022-09-12T11:27:46.659Z,101277.56
2022-09-12T11:30:17.552Z,101274.53
2022-09-12T11:33:08.478Z,101262.66
2022-09-12T11:35:45.325Z,101260.75
2022-09-12T11:38:29.950Z,101255.94
2022-09-12T11:41:01.855Z,101252.25
2022-09-12T11:43:40.728Z,101250.25
2022-09-12T11:46:16.183Z,101253.59
2022-09-12T11:48:49.734Z,101247.78
2022-09-12T11:51:21.148Z,101251.22
2022-09-12T11:54:01.707Z,101241.19
2022-09-12T11:56:29.453Z,101234.53
2022-09-12T11:59:04.226Z,101244.13
2022-09-12T12:01:43.886Z,101232.09
2022-09-12T12:04:16.453Z,101239.97
2022-09-12T12:06:53.657Z,101238.88
2022-09-12T12:09:21.602Z,101223.16
2022-09-12T12:11:56.032Z,101237.34
2022-09-12T12:14:26.198Z,101228.03
2022-09-12T12:16:54.234Z,101229.50
2022-09-12T12:19:36.667Z,101233.81
2022-09-12T12:22:17.576Z,101217.38
2022-09-12T12:25:08.113Z,101215.44
2022-09-12T12:27:51.871Z,101217.03
2022-09-12T12:31:03.025Z,101217.72
2022-09-12T12:33:53.428Z,101209.53
2022-09-12T12:36:38.419Z,101204.72
2022-09-12T12:39:48.149Z,101199.84
2022-09-12T12:43:02.812Z,101193.06
2022-09-12T12:46:10.499Z,101192.06
2022-09-12T12:49:09.458Z,101191.19
2022-09-12T12:51:42.949Z,101186.34
2022-09-12T12:54:48.737Z,101184.84
2022-09-12T12:57:48.428Z,101188.25
2022-09-12T13:00:33.119Z,101179.88
2022-09-12T13:03:07.045Z,101178.22
2022-09-12T13:05:42.735Z,101170.81
2022-09-12T13:08:25.572Z,101171.53
2022-09-12T13:10:57.914Z,101174.06
2022-09-12T13:13:32.430Z,101161.00
2022-09-12T13:16:00.174Z,101161.53
2022-09-12T13:18:34.017Z,101149.53
2022-09-12T13:21:11.043Z,101149.75
2022-09-12T13:23:38.979Z,101150.50
2022-09-12T13:26:12.424Z,101149.75
2022-09-12T13:28:40.145Z,101144.53
2022-09-12T13:31:19.117Z,101142.78
2022-09-12T13:33:49.333Z,101140.75
2022-09-12T13:36:38.104Z,101141.53
2022-09-12T13:39:21.983Z,101141.53
2022-09-12T13:42:43.334Z,101136.94
2022-09-12T13:45:15.761Z,101145.75
2022-09-12T13:47:45.191Z,101136.28
2022-09-12T13:50:20.398Z,101136.88
2022-09-12T13:52:53.224Z,101133.09
2022-09-12T13:55:30.134Z,101136.63
2022-09-12T13:58:00.677Z,101125.69
2022-09-12T14:00:31.991Z,101127.38
2022-09-12T14:03:17.594Z,101119.78
2022-09-12T14:05:53.103Z,101112.16
2022-09-12T14:08:24.017Z,101106.59
2022-09-12T14:10:52.263Z,101107.41
2022-09-12T14:13:23.400Z,101104.38
2022-09-12T14:15:53.419Z,101102.81
2022-09-12T14:18:27.170Z,101099.00
2022-09-12T14:20:56.895Z,101098.03
2022-09-12T14:23:30.241Z,101091.78
2022-09-12T14:26:00.023Z,101093.63
2022-09-12T14:28:30.217Z,101089.03
2022-09-12T14:31:00.093Z,101079.97
2022-09-12T14:33:27.841Z,101086.50
2022-09-12T14:36:12.025Z,101069.47
2022-09-12T14:38:46.023Z,101076.84
2022-09-12T14:41:21.468Z,101072.47
2022-09-12T14:43:54.071Z,101064.25
2022-09-12T14:46:28.493Z,101062.44
2022-09-12T14:48:58.921Z,101062.53
2022-09-12T14:51:29.952Z,101055.19
2022-09-12T14:53:59.503Z,101058.63
2022-09-12T14:56:41.217Z,101058.53
2022-09-12T14:59:27.525Z,101052.06
2022-09-12T15:02:18.940Z,101050.13
2022-09-12T15:04:48.273Z,101047.41
2022-09-12T15:07:16.724Z,101043.78
2022-09-12T15:09:47.453Z,101038.41
2022-09-12T15:12:15.192Z,101041.16
2022-09-12T15:14:42.832Z,101041.94
2022-09-12T15:17:10.452Z,101041.94
2022-09-12T15:19:38.104Z,101044.88
2022-09-12T15:22:06.007Z,101041.34
2022-09-12T15:24:33.671Z,101041.44
2022-09-12T15:27:02.718Z,101032.59
2022-09-12T15:29:30.426Z,101023.69
2022-09-12T15:31:58.124Z,101033.66
2022-09-12T15:34:25.843Z,101020.00
2022-09-12T15:36:53.548Z,101018.13
2022-09-12T15:39:21.210Z,101021.72
2022-09-12T15:41:49.344Z,101020.75
2022-09-12T15:44:20.084Z,101018.13
2022-09-12T15:46:48.297Z,101010.03
2022-09-12T15:49:15.980Z,101013.63
2022-09-12T15:51:43.633Z,101014.63
2022-09-12T15:54:13.877Z,101008.28
2022-09-12T15:56:41.854Z,101005.72
2022-09-12T15:59:09.499Z,101005.91
2022-09-12T16:01:38.563Z,100999.69
2022-09-12T16:04:23.726Z,100996.25
2022-09-12T16:06:51.836Z,100989.13
2022-09-12T16:09:19.653Z,100990.13
2022-09-12T16:11:47.750Z,100975.69
2022-09-12T16:14:16.167Z,100980.38
2022-09-12T16:16:46.309Z,100978.50
2022-09-12T16:19:13.971Z,100971.28
2022-09-12T16:21:41.667Z,100974.13
2022-09-12T16:24:09.436Z,100971.38
2022-09-12T16:26:37.121Z,100971.38
2022-09-12T16:29:05.173Z,100975.97
2022-09-12T16:31:40.286Z,100973.25
2022-09-12T16:34:09.404Z,100970.72
2022-09-12T16:36:37.085Z,100974.31
2022-09-12T16:39:05.345Z,100969.06
2022-09-12T16:41:33.197Z,100971.00
2022-09-12T16:44:00.829Z,100965.63
2022-09-12T16:46:29.599Z,100956.88
2022-09-12T16:48:59.255Z,100965.16
2022-09-12T16:51:31.810Z,100961.63
2022-09-12T16:53:59.689Z,100955.50
2022-09-12T16:56:27.553Z,100950.25
2022-09-12T16:58:55.588Z,100955.19
2022-09-12T17:01:25.106Z,100946.41
2022-09-12T17:03:54.445Z,100938.53
2022-09-12T17:06:22.240Z,100943.41
2022-09-12T17:08:52.819Z,100939.97
2022-09-12T17:11:22.921Z,100938.38
2022-09-12T17:14:07.568Z,100933.09
2022-09-12T17:16:39.806Z,100937.00
2022-09-12T17:19:13.099Z,100933.59
2022-09-12T17:21:40.745Z,100931.13
2022-09-12T17:24:09.859Z,100933.28
2022-09-12T17:26:37.806Z,100926.25
2022-09-12T17:29:05.668Z,100930.22
2022-09-12T17:31:33.767Z,100929.69
2022-09-12T17:34:06.724Z,100926.41
2022-09-12T17:36:34.675Z,100929.56
2022-09-12T17:39:03.635Z,100929.06
2022-09-12T17:41:33.410Z,100926.78
2022-09-12T17:44:02.485Z,100924.44
2022-09-12T17:46:34.960Z,100918.31
2022-09-12T17:49:04.569Z,100928.63
2022-09-12T17:51:32.335Z,100919.94
2022-09-12T17:54:02.134Z,100912.91
2022-09-12T17:56:32.985Z,100914.22
2022-09-12T17:59:01.559Z,100915.53
2022-09-12T18:01:48.188Z,100920.31
2022-09-12T18:04:16.255Z,100919.94
2022-09-12T18:06:48.013Z,100922.22
2022-09-12T18:09:17.772Z,100920.91
2022-09-12T18:11:48.254Z,100934.84
2022-09-12T18:14:17.247Z,100924.38
2022-09-12T18:16:45.209Z,100933.56
2022-09-12T18:19:13.300Z,100916.63
2022-09-12T18:21:41.241Z,100905.81
2022-09-12T18:24:10.528Z,100916.06
2022-09-12T18:26:38.374Z,100919.31
2022-09-12T18:29:08.104Z,100924.28
2022-09-12T18:31:35.955Z,100929.16
2022-09-12T18:34:05.893Z,100925.81
2022-09-12T18:36:33.624Z,100922.28
2022-09-12T18:39:01.260Z,100917.88
2022-09-12T18:41:29.218Z,100909.13
2022-09-12T18:43:58.513Z,100909.19
2022-09-12T18:46:28.899Z,100910.25
2022-09-12T18:48:57.654Z,100914.00
2022-09-12T18:51:31.260Z,100902.41
2022-09-12T18:54:00.959Z,100896.09
2022-09-12T18:56:32.632Z,100896.00
2022-09-12T18:59:01.761Z,100898.78
2022-09-12T19:01:32.630Z,100907.03
2022-09-12T19:04:00.986Z,100894.47
2022-09-12T19:06:30.462Z,100879.16
2022-09-12T19:09:01.692Z,100900.09
2022-09-12T19:11:31.616Z,100892.97
2022-09-12T19:13:59.285Z,100885.06
2022-09-12T19:16:28.517Z,100898.94
2022-09-12T19:18:58.500Z,100893.59
2022-09-12T19:21:28.144Z,100911.09
2022-09-12T19:23:57.996Z,100902.22
2022-09-12T19:26:26.338Z,100900.56
2022-09-12T19:28:55.171Z,100902.53
2022-09-12T19:31:23.465Z,100898.13
2022-09-12T19:33:52.088Z,100894.72
2022-09-12T19:36:43.677Z,100892.28
2022-09-12T19:39:11.335Z,100893.44
2022-09-12T19:41:39.035Z,100901.72
2022-09-12T19:44:06.724Z,100901.06
2022-09-12T19:46:34.556Z,100900.19
2022-09-12T19:49:02.347Z,100904.91
2022-09-12T19:51:31.454Z,100899.63
2022-09-12T19:53:59.188Z,100898.81
2022-09-12T19:56:26.829Z,100894.56
2022-09-12T19:58:56.714Z,100900.16
2022-09-12T20:01:28.285Z,100903.09
2022-09-12T20:03:56.410Z,100903.25
2022-09-12T20:06:24.550Z,100906.28
2022-09-12T20:08:53.604Z,100892.84
2022-09-12T20:11:25.770Z,100897.47
2022-09-12T20:13:54.384Z,100894.22
2022-09-12T20:16:26.434Z,100897.88
2022-09-12T20:18:56.072Z,100892.69
2022-09-12T20:21:30.951Z,100886.31
2022-09-12T20:24:03.169Z,100891.72
2022-09-12T20:26:31.125Z,100886.31
2022-09-12T20:28:58.778Z,100879.03
2022-09-12T20:31:27.005Z,100864.75
2022-09-12T20:34:14.366Z,100870.34
2022-09-12T20:36:42.020Z,100865.78
2022-09-12T20:39:14.848Z,100864.00
2022-09-12T20:41:42.642Z,100860.56
2022-09-12T20:44:10.340Z,100853.47
2022-09-12T20:46:38.028Z,100853.69
2022-09-12T20:49:05.839Z,100837.59
2022-09-12T20:51:34.870Z,100837.59
2022-09-12T20:54:04.600Z,100842.25
2022-09-12T20:56:34.575Z,100837.06
2022-09-12T20:59:02.871Z,100841.56
2022-09-12T21:01:31.647Z,100828.00
2022-09-12T21:04:00.340Z,100827.16
2022-09-12T21:06:28.503Z,100826.19
2022-09-12T21:09:00.484Z,100827.97
2022-09-12T21:11:29.205Z,100820.63
2022-09-12T21:13:57.235Z,100808.81
2022-09-12T21:16:25.213Z,100815.13
2022-09-12T21:18:57.655Z,100819.53
2022-09-12T21:21:25.469Z,100819.53
2022-09-12T21:23:55.189Z,100822.38
2022-09-12T21:26:24.407Z,100810.72
2022-09-12T21:28:52.264Z,100808.00
2022-09-12T21:31:19.983Z,100809.69
2022-09-12T21:33:47.763Z,100817.97
2022-09-12T21:36:15.470Z,100817.97
2022-09-12T21:38:43.274Z,100818.94
2022-09-12T21:41:12.805Z,100822.53
2022-09-12T21:43:42.316Z,100828.75
2022-09-12T21:46:10.536Z,100829.78
2022-09-12T21:48:38.309Z,100823.56
2022-09-12T21:51:06.534Z,100814.53
2022-09-12T21:53:34.261Z,100821.78
2022-09-12T21:56:02.651Z,100823.72
2022-09-12T21:58:30.462Z,100823.75
2022-09-12T22:00:59.724Z,100832.13
2022-09-12T22:03:27.530Z,100830.50
2022-09-12T22:05:58.217Z,100834.38
2022-09-12T22:08:26.102Z,100843.56
2022-09-12T22:10:53.783Z,100839.16
2022-09-12T22:13:21.380Z,100847.38
2022-09-12T22:15:51.988Z,100851.03
2022-09-12T22:18:20.998Z,100837.47
2022-09-12T22:20:48.607Z,100843.84
2022-09-12T22:23:33.985Z,100843.03
2022-09-12T22:26:02.746Z,100851.31
2022-09-12T22:28:32.104Z,100856.81
2022-09-12T22:30:59.799Z,100847.06
2022-09-12T22:33:28.874Z,100839.19
2022-09-12T22:35:56.482Z,100843.03
2022-09-12T22:38:26.029Z,100843.31
2022-09-12T22:40:53.880Z,100842.44
2022-09-12T22:43:21.483Z,100831.59
2022-09-12T22:45:49.129Z,100837.09
2022-09-12T22:48:17.082Z,100848.09
2022-09-12T22:50:46.109Z,100838.34
2022-09-12T22:53:13.739Z,100850.09
2022-09-12T22:55:41.365Z,100851.94
2022-09-12T22:58:08.984Z,100848.16
2022-09-12T23:00:36.711Z,100849.09
2022-09-12T23:03:04.401Z,100856.28
2022-09-12T23:05:32.311Z,100850.88
2022-09-12T23:08:01.603Z,100855.25
2022-09-12T23:10:29.264Z,100851.53
2022-09-12T23:12:57.460Z,100838.72
2022-09-12T23:15:25.103Z,100848.47
2022-09-12T23:17:52.726Z,100843.19
2022-09-12T23:20:20.350Z,100836.03
2022-09-12T23:22:48.035Z,100825.09
2022-09-12T23:25:17.701Z,100825.19
2022-09-12T23:27:45.474Z,100818.78
2022-09-12T23:30:13.251Z,100820.56
2022-09-12T23:32:40.885Z,100820.47
2022-09-12T23:35:08.867Z,100822.31
2022-09-12T23:37:36.458Z,100816.91
2022-09-12T23:40:04.565Z,100821.50
2022-09-12T23:42:33.577Z,100821.63
2022-09-12T23:45:01.186Z,100822.59
2022-09-12T23:47:28.815Z,100820.78
2022-09-12T23:49:56.399Z,100807.22
2022-09-12T23:52:23.989Z,100802.66
2022-09-12T23:54:51.665Z,100800.97
2022-09-12T23:57:19.316Z,100790.22
2022-09-12T23:59:48.275Z,100804.81
